Time;durP1;ratioP1;P1;durP2;ratioP2;P2;SDS_P1;SDS_P2;PMS_P1;PMS_P2;Temp;Humidity;BMP_temperature;BMP_pressure;BME280_temperature;BME280_humidity;BME280_pressure;Samples;Min_cycle;Max_cycle;Signal;HPM_P1;HPM_P2
2023/12/20 00:01:16;;;;;;;25.33;7.05;;;;;;;-143.54;100.00;59916.91;5098329;28;20024;-82
2023/12/20 00:03:41;;;;;;;25.27;6.93;;;;;;;-143.54;100.00;59916.91;5075319;28;20073;-81
2023/12/20 00:06:07;;;;;;;26.45;6.30;;;;;;;-143.54;100.00;59916.91;5097608;28;20539;-82
2023/12/20 00:08:32;;;;;;;27.13;6.18;;;;;;;-143.54;100.00;59916.91;5096460;28;20020;-82
2023/12/20 00:10:57;;;;;;;27.77;5.90;;;;;;;-143.54;100.00;59916.91;5096558;28;20024;-82
2023/12/20 00:13:23;;;;;;;21.73;5.40;;;;;;;-143.54;100.00;59916.91;5099333;28;20054;-82
2023/12/20 00:15:48;;;;;;;26.50;5.43;;;;;;;-143.54;100.00;59916.91;5100457;28;20035;-82
2023/12/20 00:18:13;;;;;;;27.70;4.95;;;;;;;-143.54;100.00;59916.91;5098721;28;20055;-82
2023/12/20 00:20:39;;;;;;;20.92;5.00;;;;;;;-143.54;100.00;59916.91;5106200;28;20084;-82
2023/12/20 00:23:04;;;;;;;30.48;5.32;;;;;;;-143.54;100.00;59916.91;5089127;28;20041;-82
2023/12/20 00:25:29;;;;;;;23.70;4.60;;;;;;;-143.54;100.00;59916.91;5087880;28;20031;-82
2023/12/20 00:27:54;;;;;;;19.88;4.65;;;;;;;-143.54;100.00;59916.91;5093058;28;20028;-82
2023/12/20 00:30:20;;;;;;;28.17;5.60;;;;;;;-143.54;100.00;59916.91;5101250;28;20039;-82
2023/12/20 00:32:48;;;;;;;27.83;4.78;;;;;;;-143.54;100.00;59916.91;5099822;28;20374;-82
2023/12/20 00:35:14;;;;;;;22.95;4.97;;;;;;;-143.54;100.00;59916.91;5101363;28;20046;-82
2023/12/20 00:37:39;;;;;;;18.77;4.15;;;;;;;-143.54;100.00;59916.91;5088734;28;20464;-82
2023/12/20 00:40:05;;;;;;;22.10;4.47;;;;;;;-143.54;100.00;59916.91;5100385;28;20119;-82
2023/12/20 00:42:30;;;;;;;18.40;4.13;;;;;;;-143.54;100.00;59916.91;5100434;28;20063;-82
2023/12/20 00:44:56;;;;;;;20.27;4.07;;;;;;;-143.54;100.00;59916.91;5103845;28;20068;-82
2023/12/20 00:47:22;;;;;;;26.25;4.82;;;;;;;-143.54;100.00;59916.91;5101732;28;20030;-82
2023/12/20 00:49:47;;;;;;;28.90;4.10;;;;;;;-143.54;100.00;59916.91;5102989;28;20024;-82
2023/12/20 00:52:12;;;;;;;24.05;3.92;;;;;;;-143.54;100.00;59916.91;5100884;28;20076;-82
2023/12/20 00:54:37;;;;;;;23.77;4.03;;;;;;;-143.54;100.00;59916.91;5102867;28;20036;-82
2023/12/20 00:57:03;;;;;;;25.67;4.50;;;;;;;-143.54;100.00;59916.91;5097771;28;20043;-82
2023/12/20 00:59:28;;;;;;;24.63;4.70;;;;;;;-143.54;100.00;59916.91;5102323;28;20028;-82
2023/12/20 01:01:54;;;;;;;21.25;4.60;;;;;;;-143.54;100.00;59916.91;5100845;28;20035;-82
2023/12/20 01:04:19;;;;;;;17.50;4.25;;;;;;;-143.54;100.00;59916.91;5105447;28;20463;-83
2023/12/20 01:06:44;;;;;;;23.00;4.25;;;;;;;-143.54;100.00;59916.91;5105137;28;20035;-82
2023/12/20 01:09:09;;;;;;;23.17;4.43;;;;;;;-143.54;100.00;59916.91;5101946;28;20027;-82
2023/12/20 01:11:35;;;;;;;24.33;4.18;;;;;;;-143.54;100.00;59916.91;5102773;28;20034;-82
2023/12/20 01:14:00;;;;;;;16.45;4.53;;;;;;;-143.54;100.00;59916.91;5102924;28;20040;-82
2023/12/20 01:16:25;;;;;;;26.52;5.07;;;;;;;-143.54;100.00;59916.91;5100492;28;20046;-82
2023/12/20 01:18:50;;;;;;;21.38;4.68;;;;;;;-143.54;100.00;59916.91;5105033;28;20043;-82
2023/12/20 01:21:16;;;;;;;19.48;5.07;;;;;;;-143.54;100.00;59916.91;5104923;28;20024;-82
2023/12/20 01:23:41;;;;;;;26.48;5.18;;;;;;;-143.54;100.00;59916.91;5106173;28;20432;-82
2023/12/20 01:26:07;;;;;;;15.18;4.47;;;;;;;-143.54;100.00;59916.91;5100101;28;20020;-82
2023/12/20 01:28:32;;;;;;;24.60;5.30;;;;;;;-143.54;100.00;59916.91;5106215;28;20027;-82
2023/12/20 01:30:57;;;;;;;28.13;5.07;;;;;;;-143.54;100.00;59916.91;5099611;28;20032;-82
2023/12/20 01:33:23;;;;;;;30.30;4.78;;;;;;;-143.54;100.00;59916.91;5107664;28;19916;-82
2023/12/20 01:35:48;;;;;;;20.67;4.85;;;;;;;-143.54;100.00;59916.91;5094743;28;20509;-82
2023/12/20 01:38:14;;;;;;;24.45;4.53;;;;;;;-143.54;100.00;59916.91;5103585;28;20425;-82
2023/12/20 01:40:39;;;;;;;15.98;4.40;;;;;;;-143.54;100.00;59916.91;5099174;28;20051;-82
2023/12/20 01:43:08;;;;;;;23.05;4.97;;;;;;;-143.54;100.00;59916.91;5099079;28;20032;-82
2023/12/20 01:45:34;;;;;;;26.38;4.32;;;;;;;-143.54;100.00;59916.91;5088204;28;20028;-82
2023/12/20 01:48:01;;;;;;;24.45;4.50;;;;;;;-143.54;100.00;59916.91;5094790;28;20491;-82
2023/12/20 01:50:28;;;;;;;32.17;5.75;;;;;;;-143.54;100.00;59916.91;5093074;28;20028;-82
2023/12/20 01:52:57;;;;;;;23.10;4.97;;;;;;;-143.54;100.00;59916.91;5093682;28;20080;-82
2023/12/20 01:55:23;;;;;;;29.25;4.90;;;;;;;-143.54;100.00;59916.91;5095920;28;20478;-82
2023/12/20 01:57:48;;;;;;;25.75;5.20;;;;;;;-143.54;100.00;59916.91;5097030;28;20044;-82
2023/12/20 02:00:14;;;;;;;34.63;4.88;;;;;;;-143.54;100.00;59916.91;5091846;28;20024;-82
2023/12/20 02:02:40;;;;;;;18.08;4.78;;;;;;;-143.54;100.00;59916.91;5098441;28;20491;-82
2023/12/20 02:05:07;;;;;;;21.40;4.45;;;;;;;-143.54;100.00;59916.91;5094193;28;20342;-82
2023/12/20 02:07:34;;;;;;;24.08;4.68;;;;;;;-143.54;100.00;59916.91;5100490;28;20074;-82
2023/12/20 02:09:59;;;;;;;26.85;5.60;;;;;;;-143.54;100.00;59916.91;5090121;28;20783;-82
2023/12/20 02:12:25;;;;;;;24.08;4.80;;;;;;;-143.54;100.00;59916.91;5091612;28;20028;-82
2023/12/20 02:14:50;;;;;;;21.80;5.13;;;;;;;-143.54;100.00;59916.91;5093844;28;20050;-82
2023/12/20 02:17:16;;;;;;;22.25;5.45;;;;;;;-143.54;100.00;59916.91;5093669;28;20099;-82
2023/12/20 02:19:42;;;;;;;27.60;5.97;;;;;;;-143.54;100.00;59916.91;5095343;28;20051;-82
2023/12/20 02:22:11;;;;;;;35.88;5.88;;;;;;;-143.54;100.00;59916.91;5090683;28;20024;-82
2023/12/20 02:24:37;;;;;;;25.48;5.45;;;;;;;-143.54;100.00;59916.91;5092158;28;20024;-82
2023/12/20 02:27:03;;;;;;;32.38;6.68;;;;;;;-143.54;100.00;59916.91;5092330;28;20024;-82
2023/12/20 02:29:28;;;;;;;26.25;5.40;;;;;;;-143.54;100.00;59916.91;5091945;28;20492;-82
2023/12/20 02:31:53;;;;;;;25.80;6.15;;;;;;;-143.54;100.00;59916.91;5093389;28;20111;-82
2023/12/20 02:34:19;;;;;;;26.23;5.53;;;;;;;-143.54;100.00;59916.91;5095156;28;20463;-82
2023/12/20 02:36:44;;;;;;;21.10;5.20;;;;;;;-143.54;100.00;59916.91;5094153;28;20024;-82
2023/12/20 02:39:09;;;;;;;28.30;6.05;;;;;;;-143.54;100.00;59916.91;5105815;28;20061;-82
2023/12/20 02:41:34;;;;;;;28.60;6.15;;;;;;;-143.54;100.00;59916.91;5100419;28;20032;-82
2023/12/20 02:44:01;;;;;;;22.17;6.28;;;;;;;-143.54;100.00;59916.91;5102223;28;20012;-82
2023/12/20 02:46:27;;;;;;;33.75;6.38;;;;;;;-143.54;100.00;59916.91;5098260;28;20032;-83
2023/12/20 02:48:52;;;;;;;21.98;6.78;;;;;;;-143.54;100.00;59916.91;5102851;28;20098;-83
2023/12/20 02:51:17;;;;;;;32.63;5.97;;;;;;;-143.54;100.00;59916.91;5096878;28;20085;-82
2023/12/20 02:53:43;;;;;;;25.50;6.03;;;;;;;-143.54;100.00;59916.91;5095649;28;20110;-83
2023/12/20 02:56:08;;;;;;;26.42;5.68;;;;;;;-143.54;100.00;59916.91;5097103;28;20031;-83
2023/12/20 02:58:33;;;;;;;33.13;6.75;;;;;;;-143.54;100.00;59916.91;5101005;28;20024;-82
2023/12/20 03:00:59;;;;;;;31.60;6.03;;;;;;;-143.54;100.00;59916.91;5099405;28;20035;-82
2023/12/20 03:03:24;;;;;;;24.75;6.18;;;;;;;-143.54;100.00;59916.91;5100634;28;20425;-82
2023/12/20 03:05:49;;;;;;;25.70;5.43;;;;;;;-143.54;100.00;59916.91;5102023;28;20028;-83
2023/12/20 03:08:14;;;;;;;26.52;5.03;;;;;;;-143.54;100.00;59916.91;5100601;28;20536;-83
2023/12/20 03:10:40;;;;;;;37.00;6.82;;;;;;;-143.54;100.00;59916.91;5105739;28;20288;-83
2023/12/20 03:13:05;;;;;;;28.27;5.60;;;;;;;-143.54;100.00;59916.91;5098294;28;20898;-82
2023/12/20 03:15:30;;;;;;;26.70;5.70;;;;;;;-143.54;100.00;59916.91;5096585;28;20032;-82
2023/12/20 03:17:55;;;;;;;22.92;4.82;;;;;;;-143.54;100.00;59916.91;5101667;28;20124;-82
2023/12/20 03:20:21;;;;;;;30.83;6.38;;;;;;;-143.54;100.00;59916.91;5093524;28;20535;-82
2023/12/20 03:22:46;;;;;;;33.50;6.57;;;;;;;-143.54;100.00;59916.91;5106963;28;20028;-83
2023/12/20 03:25:11;;;;;;;27.23;5.88;;;;;;;-143.54;100.00;59916.91;5093488;28;20024;-82
2023/12/20 03:27:38;;;;;;;27.33;5.88;;;;;;;-143.54;100.00;59916.91;5100674;28;20107;-83
2023/12/20 03:30:04;;;;;;;31.13;6.47;;;;;;;-143.54;100.00;59916.91;5094870;28;20032;-83
2023/12/20 03:32:30;;;;;;;42.63;6.35;;;;;;;-143.54;100.00;59916.91;5102563;28;20035;-82
2023/12/20 03:34:55;;;;;;;33.78;7.55;;;;;;;-143.54;100.00;59916.91;5110890;28;20034;-82
2023/12/20 03:37:21;;;;;;;25.05;7.43;;;;;;;-143.54;100.00;59916.91;5097138;28;20559;-82
2023/12/20 03:39:47;;;;;;;25.98;7.45;;;;;;;-143.54;100.00;59916.91;5103569;28;20106;-82
2023/12/20 03:42:13;;;;;;;37.65;7.20;;;;;;;-143.54;100.00;59916.91;5099187;28;20146;-82
2023/12/20 03:44:39;;;;;;;33.60;8.10;;;;;;;-143.54;100.00;59916.91;5095469;28;20032;-82
2023/12/20 03:47:05;;;;;;;24.73;7.75;;;;;;;-143.54;100.00;59916.91;5101041;28;20031;-82
2023/12/20 03:49:30;;;;;;;41.00;8.38;;;;;;;-143.54;100.00;59916.91;5088831;28;20032;-83
2023/12/20 03:51:55;;;;;;;24.55;7.70;;;;;;;-143.54;100.00;59916.91;5096853;28;20031;-82
2023/12/20 03:54:21;;;;;;;33.65;8.43;;;;;;;-143.54;100.00;59916.91;5093552;28;20116;-82
2023/12/20 03:56:46;;;;;;;33.90;9.48;;;;;;;-143.54;100.00;59916.91;5098199;28;20067;-83
2023/12/20 03:59:11;;;;;;;31.13;9.25;;;;;;;-143.54;100.00;59916.91;5095487;28;20114;-82
2023/12/20 04:01:37;;;;;;;31.08;9.38;;;;;;;-143.54;100.00;59916.91;5095250;28;20028;-82
2023/12/20 04:04:02;;;;;;;36.80;9.52;;;;;;;-143.54;100.00;59916.91;5096666;28;20066;-83
2023/12/20 04:06:28;;;;;;;34.38;10.20;;;;;;;-143.54;100.00;59916.91;5099141;28;20031;-83
2023/12/20 04:08:53;;;;;;;36.78;9.90;;;;;;;-143.54;100.00;59916.91;5097641;28;20032;-82
2023/12/20 04:11:18;;;;;;;41.13;10.07;;;;;;;-143.54;100.00;59916.91;5094965;28;20024;-82
2023/12/20 04:13:43;;;;;;;43.28;10.20;;;;;;;-143.54;100.00;59916.91;5097609;28;20480;-82
2023/12/20 04:16:09;;;;;;;40.13;10.35;;;;;;;-143.54;100.00;59916.91;5095045;28;20020;-82
2023/12/20 04:18:34;;;;;;;48.30;11.25;;;;;;;-143.54;100.00;59916.91;5098191;28;20460;-82
2023/12/20 04:20:59;;;;;;;40.53;9.65;;;;;;;-143.54;100.00;59916.91;5101586;28;20031;-82
2023/12/20 04:23:25;;;;;;;43.63;9.80;;;;;;;-143.54;100.00;59916.91;5097181;28;20032;-82
2023/12/20 04:25:50;;;;;;;31.80;9.82;;;;;;;-143.54;100.00;59916.91;5103277;28;20035;-82
2023/12/20 04:28:15;;;;;;;40.78;9.77;;;;;;;-143.54;100.00;59916.91;5102658;28;20062;-82
2023/12/20 04:30:41;;;;;;;40.85;9.35;;;;;;;-143.54;100.00;59916.91;5105234;28;20038;-82
2023/12/20 04:33:07;;;;;;;41.15;8.95;;;;;;;-143.54;100.00;59916.91;5100445;28;20059;-82
2023/12/20 04:35:32;;;;;;;42.88;8.73;;;;;;;-143.54;100.00;59916.91;5100476;28;20067;-82
2023/12/20 04:37:57;;;;;;;31.25;8.23;;;;;;;-143.54;100.00;59916.91;5098086;28;20492;-82
2023/12/20 04:40:23;;;;;;;37.20;8.25;;;;;;;-143.54;100.00;59916.91;5099937;28;20039;-82
2023/12/20 04:42:48;;;;;;;35.90;8.30;;;;;;;-143.54;100.00;59916.91;5100843;28;20036;-83
2023/12/20 04:45:15;;;;;;;38.17;8.43;;;;;;;-143.54;100.00;59916.91;5095720;28;20031;-82
2023/12/20 04:47:42;;;;;;;46.95;7.95;;;;;;;-143.54;100.00;59916.91;5098868;28;20104;-82
2023/12/20 04:50:07;;;;;;;31.75;8.02;;;;;;;-143.54;100.00;59916.91;5095848;28;20532;-82
2023/12/20 04:52:33;;;;;;;27.92;6.85;;;;;;;-143.54;100.00;59916.91;5097657;28;20035;-82
2023/12/20 04:54:59;;;;;;;32.47;7.88;;;;;;;-143.54;100.00;59916.91;5094796;28;20038;-82
2023/12/20 04:57:24;;;;;;;43.38;8.50;;;;;;;-143.54;100.00;59916.91;5103652;28;20127;-82
2023/12/20 04:59:49;;;;;;;37.60;7.18;;;;;;;-143.54;100.00;59916.91;5097240;28;20112;-82
2023/12/20 05:02:15;;;;;;;32.65;7.05;;;;;;;-143.54;100.00;59916.91;5101563;28;20027;-82
2023/12/20 05:04:41;;;;;;;30.30;7.38;;;;;;;-143.54;100.00;59916.91;5092373;28;20032;-82
2023/12/20 05:07:06;;;;;;;36.35;7.35;;;;;;;-143.54;100.00;59916.91;5098464;28;20497;-83
2023/12/20 05:09:32;;;;;;;38.22;7.93;;;;;;;-143.54;100.00;59916.91;5093494;28;20024;-82
2023/12/20 05:11:57;;;;;;;35.15;6.50;;;;;;;-143.54;100.00;59916.91;5093713;28;20031;-82
2023/12/20 05:14:22;;;;;;;40.88;7.65;;;;;;;-143.54;100.00;59916.91;5094544;28;20353;-83
2023/12/20 05:16:47;;;;;;;33.03;6.78;;;;;;;-143.54;100.00;59916.91;5094482;28;20082;-82
2023/12/20 05:19:14;;;;;;;36.15;6.40;;;;;;;-143.54;100.00;59916.91;5097373;28;20077;-82
2023/12/20 05:21:39;;;;;;;37.13;7.55;;;;;;;-143.54;100.00;59916.91;5101319;28;20110;-82
2023/12/20 05:24:05;;;;;;;34.78;7.10;;;;;;;-143.54;100.00;59916.91;5102743;28;20434;-82
2023/12/20 05:26:30;;;;;;;41.20;7.50;;;;;;;-143.54;100.00;59916.91;5102281;28;20531;-82
2023/12/20 05:28:56;;;;;;;34.47;7.07;;;;;;;-143.54;100.00;59916.91;5104828;28;20491;-82
2023/12/20 05:31:21;;;;;;;29.60;6.55;;;;;;;-143.54;100.00;59916.91;5103592;28;20024;-82
2023/12/20 05:33:46;;;;;;;26.30;6.20;;;;;;;-143.54;100.00;59916.91;5099021;28;20031;-82
2023/12/20 05:36:13;;;;;;;31.02;6.72;;;;;;;-143.54;100.00;59916.91;5094076;28;20028;-82
2023/12/20 05:38:39;;;;;;;39.75;7.60;;;;;;;-143.54;100.00;59916.91;5105248;28;20027;-82
2023/12/20 05:41:04;;;;;;;31.55;7.57;;;;;;;-143.54;100.00;59916.91;5106500;28;20383;-83
2023/12/20 05:43:31;;;;;;;32.17;6.80;;;;;;;-143.54;100.00;59916.91;5102635;28;20035;-82
2023/12/20 05:45:56;;;;;;;25.70;6.72;;;;;;;-143.54;100.00;59916.91;5098520;28;20039;-83
2023/12/20 05:48:21;;;;;;;36.17;7.07;;;;;;;-143.54;100.00;59916.91;5101278;28;20028;-82
2023/12/20 05:50:47;;;;;;;26.27;7.57;;;;;;;-143.54;100.00;59916.91;5098334;28;20364;-82
2023/12/20 05:53:13;;;;;;;34.28;6.68;;;;;;;-143.54;100.00;59916.91;5103899;28;20024;-83
2023/12/20 05:55:38;;;;;;;37.03;6.10;;;;;;;-143.54;100.00;59916.91;5097609;28;20028;-82
2023/12/20 05:58:04;;;;;;;28.35;5.93;;;;;;;-143.54;100.00;59916.91;5100391;28;20395;-82
2023/12/20 06:00:30;;;;;;;37.28;6.68;;;;;;;-143.54;100.00;59916.91;5099227;28;20020;-82
2023/12/20 06:02:55;;;;;;;24.45;6.15;;;;;;;-143.54;100.00;59916.91;5088725;28;20021;-82
2023/12/20 06:05:20;;;;;;;33.97;6.70;;;;;;;-143.54;100.00;59916.91;5092970;28;20035;-82
2023/12/20 06:07:48;;;;;;;33.88;7.10;;;;;;;-143.54;100.00;59916.91;5093560;28;20035;-82
2023/12/20 06:10:13;;;;;;;38.60;6.45;;;;;;;-143.54;100.00;59916.91;5101933;28;20019;-82
2023/12/20 06:12:39;;;;;;;30.13;7.00;;;;;;;-143.54;100.00;59916.91;5101118;28;20084;-82
2023/12/20 06:15:05;;;;;;;40.88;7.25;;;;;;;-143.54;100.00;59916.91;5092864;28;20353;-82
2023/12/20 06:17:31;;;;;;;39.85;7.38;;;;;;;-143.54;100.00;59916.91;5101955;28;20028;-83
2023/12/20 06:19:56;;;;;;;42.42;7.55;;;;;;;-143.54;100.00;59916.91;5100232;28;20348;-83
2023/12/20 06:22:21;;;;;;;37.30;7.88;;;;;;;-143.54;100.00;59916.91;5102505;28;20032;-83
2023/12/20 06:24:47;;;;;;;31.08;6.90;;;;;;;-143.54;100.00;59916.91;5101575;28;20378;-82
2023/12/20 06:27:12;;;;;;;32.33;7.55;;;;;;;-143.54;100.00;59916.91;5102719;28;20032;-83
2023/12/20 06:29:38;;;;;;;32.83;8.43;;;;;;;-143.54;100.00;59916.91;5101802;28;20016;-83
2023/12/20 06:32:04;;;;;;;33.92;7.30;;;;;;;-143.54;100.00;59916.91;5099280;28;20058;-82
2023/12/20 06:34:29;;;;;;;33.60;8.43;;;;;;;-143.54;100.00;59916.91;5095864;28;20467;-82
2023/12/20 06:36:54;;;;;;;32.67;8.30;;;;;;;-143.54;100.00;59916.91;5097200;28;20020;-83
2023/12/20 06:39:19;;;;;;;34.33;9.68;;;;;;;-143.54;100.00;59916.91;5107053;28;20069;-82
2023/12/20 06:41:45;;;;;;;33.90;8.38;;;;;;;-143.54;100.00;59916.91;5101688;28;20087;-83
2023/12/20 06:44:10;;;;;;;39.10;8.57;;;;;;;-143.54;100.00;59916.91;5094674;28;20039;-83
2023/12/20 06:46:36;;;;;;;33.13;9.00;;;;;;;-143.54;100.00;59916.91;5099840;28;20027;-82
2023/12/20 06:49:01;;;;;;;37.30;8.10;;;;;;;-143.54;100.00;59916.91;5096638;28;20043;-83
2023/12/20 06:51:26;;;;;;;28.75;8.48;;;;;;;-143.54;100.00;59916.91;5096915;28;20024;-82
2023/12/20 06:53:52;;;;;;;41.42;9.23;;;;;;;-143.54;100.00;59916.91;5102461;28;20024;-82
2023/12/20 06:56:17;;;;;;;42.45;9.07;;;;;;;-143.54;100.00;59916.91;5098971;28;20471;-83
2023/12/20 06:58:43;;;;;;;35.97;8.75;;;;;;;-143.54;100.00;59916.91;5099803;28;20047;-82
2023/12/20 07:01:15;;;;;;;33.85;8.35;;;;;;;-143.54;100.00;59916.91;5096576;28;20027;-83
2023/12/20 07:03:41;;;;;;;33.40;8.10;;;;;;;-143.54;100.00;59916.91;5106767;28;20035;-83
2023/12/20 07:06:07;;;;;;;52.83;8.27;;;;;;;-143.54;100.00;59916.91;5095713;28;20024;-83
2023/12/20 07:08:32;;;;;;;29.63;7.80;;;;;;;-143.54;100.00;59916.91;5086923;28;20376;-83
2023/12/20 07:10:58;;;;;;;37.15;8.45;;;;;;;-143.54;100.00;59916.91;5090953;28;20088;-82
2023/12/20 07:13:23;;;;;;;32.85;7.55;;;;;;;-143.54;100.00;59916.91;5101339;28;20089;-82
2023/12/20 07:15:48;;;;;;;38.65;7.65;;;;;;;-143.54;100.00;59916.91;5103795;28;20028;-83
2023/12/20 07:18:14;;;;;;;26.00;7.22;;;;;;;-143.54;100.00;59916.91;5098650;28;20035;-82
2023/12/20 07:20:39;;;;;;;30.15;7.38;;;;;;;-143.54;100.00;59916.91;5102998;28;20031;-82
2023/12/20 07:23:04;;;;;;;26.75;7.68;;;;;;;-143.54;100.00;59916.91;5098422;28;20107;-82
2023/12/20 07:25:32;;;;;;;46.83;8.50;;;;;;;-143.54;100.00;59916.91;5095264;28;20039;-82
2023/12/20 07:27:58;;;;;;;26.25;7.22;;;;;;;-143.54;100.00;59916.91;5094500;28;20051;-82
2023/12/20 07:30:23;;;;;;;37.50;9.07;;;;;;;-143.54;100.00;59916.91;5091209;28;20066;-82
2023/12/20 07:32:48;;;;;;;34.88;8.00;;;;;;;-143.54;100.00;59916.91;5095771;28;20390;-82
2023/12/20 07:35:18;;;;;;;30.52;7.72;;;;;;;-143.54;100.00;59916.91;5097522;28;20106;-81
2023/12/20 07:37:44;;;;;;;31.25;7.28;;;;;;;-143.54;100.00;59916.91;5097904;28;20039;-82
2023/12/20 07:40:09;;;;;;;34.33;7.22;;;;;;;-143.54;100.00;59916.91;5097064;28;20693;-82
2023/12/20 07:42:34;;;;;;;22.77;6.60;;;;;;;-143.54;100.00;59916.91;5098433;28;20031;-82
2023/12/20 07:45:00;;;;;;;31.58;7.32;;;;;;;-143.54;100.00;59916.91;5097667;28;20467;-82
2023/12/20 07:47:25;;;;;;;34.60;7.90;;;;;;;-143.54;100.00;59916.91;5100246;28;20031;-82
2023/12/20 07:49:54;;;;;;;27.17;7.25;;;;;;;-143.54;100.00;59916.91;5095005;28;20665;-82
2023/12/20 07:52:19;;;;;;;26.30;7.03;;;;;;;-143.54;100.00;59916.91;5099202;28;20168;-81
2023/12/20 07:54:45;;;;;;;35.78;8.45;;;;;;;-143.54;100.00;59916.91;5090145;28;20082;-81
2023/12/20 07:57:11;;;;;;;27.10;7.88;;;;;;;-143.54;100.00;59916.91;5100099;28;20043;-82
2023/12/20 07:59:36;;;;;;;23.33;6.32;;;;;;;-143.54;100.00;59916.91;5098052;28;20039;-82
2023/12/20 08:02:02;;;;;;;27.67;7.00;;;;;;;-143.54;100.00;59916.91;5096812;28;20012;-82
2023/12/20 08:04:27;;;;;;;26.95;6.95;;;;;;;-143.54;100.00;59916.91;5088058;28;20116;-82
2023/12/20 08:06:52;;;;;;;26.63;6.97;;;;;;;-143.54;100.00;59916.91;5096299;28;20084;-82
2023/12/20 08:09:19;;;;;;;30.50;6.93;;;;;;;-143.54;100.00;59916.91;5102611;28;20481;-82
2023/12/20 08:11:48;;;;;;;33.00;6.53;;;;;;;-143.54;100.00;59916.91;5095914;28;20374;-82
2023/12/20 08:14:13;;;;;;;33.13;6.82;;;;;;;-143.54;100.00;59916.91;5104006;28;20023;-82
2023/12/20 08:16:39;;;;;;;28.70;7.25;;;;;;;-143.54;100.00;59916.91;5095443;28;20020;-82
2023/12/20 08:19:04;;;;;;;34.13;8.45;;;;;;;-143.54;100.00;59916.91;5102547;28;20062;-82
2023/12/20 08:21:29;;;;;;;28.48;7.00;;;;;;;-143.54;100.00;59916.91;5097813;28;20024;-82
2023/12/20 08:23:55;;;;;;;37.75;7.13;;;;;;;-143.54;100.00;59916.91;5094749;28;20031;-82
2023/12/20 08:26:21;;;;;;;28.20;6.90;;;;;;;-143.54;100.00;59916.91;5099922;28;20356;-82
2023/12/20 08:28:47;;;;;;;33.38;7.10;;;;;;;-143.54;100.00;59916.91;5098037;28;20024;-82
2023/12/20 08:31:16;;;;;;;25.83;7.05;;;;;;;-143.54;100.00;59916.91;5100853;28;20158;-82
2023/12/20 08:33:44;;;;;;;36.22;7.72;;;;;;;-143.54;100.00;59916.91;5092215;28;20036;-82
2023/12/20 08:36:09;;;;;;;20.92;5.93;;;;;;;-143.54;100.00;59916.91;5101622;28;20023;-82
2023/12/20 08:38:34;;;;;;;34.08;7.28;;;;;;;-143.54;100.00;59916.91;5096248;28;20024;-82
2023/12/20 08:40:59;;;;;;;23.17;7.13;;;;;;;-143.54;100.00;59916.91;5099519;28;20161;-82
2023/12/20 08:43:25;;;;;;;31.58;7.03;;;;;;;-143.54;100.00;59916.91;5099198;28;20024;-82
2023/12/20 08:45:50;;;;;;;32.28;7.18;;;;;;;-143.54;100.00;59916.91;5091078;28;20051;-82
2023/12/20 08:48:15;;;;;;;32.20;6.53;;;;;;;-143.54;100.00;59916.91;5098591;28;20073;-82
2023/12/20 08:50:41;;;;;;;23.77;6.30;;;;;;;-143.54;100.00;59916.91;5094626;28;20107;-82
2023/12/20 08:53:06;;;;;;;32.35;6.68;;;;;;;-143.54;100.00;59916.91;5098110;28;20089;-82
2023/12/20 08:55:32;;;;;;;22.42;6.20;;;;;;;-143.54;100.00;59916.91;5094992;28;20479;-82
2023/12/20 08:57:57;;;;;;;19.83;5.95;;;;;;;-143.54;100.00;59916.91;5096778;28;20055;-82
2023/12/20 09:00:25;;;;;;;21.65;5.95;;;;;;;-143.54;100.00;59916.91;5098786;28;20051;-82
2023/12/20 09:02:51;;;;;;;24.33;6.00;;;;;;;-143.54;100.00;59916.91;5101531;28;20032;-82
2023/12/20 09:05:16;;;;;;;20.42;5.97;;;;;;;-143.54;100.00;59916.91;5106470;28;20034;-82
2023/12/20 09:07:41;;;;;;;27.52;6.70;;;;;;;-143.54;100.00;59916.91;5101734;28;20044;-82
2023/12/20 09:10:07;;;;;;;28.75;7.20;;;;;;;-143.54;100.00;59916.91;5105339;28;20502;-82
2023/12/20 09:12:32;;;;;;;23.35;6.00;;;;;;;-143.54;100.00;59916.91;5101788;28;20114;-82
2023/12/20 09:14:57;;;;;;;27.92;5.53;;;;;;;-143.54;100.00;59916.91;5103766;28;20356;-82
2023/12/20 09:17:23;;;;;;;25.30;5.82;;;;;;;-143.54;100.00;59916.91;5103276;28;20395;-82
2023/12/20 09:19:48;;;;;;;23.75;6.93;;;;;;;-143.54;100.00;59916.91;5094189;28;20024;-83
2023/12/20 09:22:13;;;;;;;20.27;6.18;;;;;;;-143.54;100.00;59916.91;5100768;28;20131;-82
2023/12/20 09:24:39;;;;;;;19.73;5.05;;;;;;;-143.54;100.00;59916.91;5105645;28;20024;-82
2023/12/20 09:27:07;;;;;;;19.73;5.70;;;;;;;-143.54;100.00;59916.91;5097421;28;20097;-82
2023/12/20 09:29:33;;;;;;;26.42;6.13;;;;;;;-143.54;100.00;59916.91;5106829;28;20101;-82
2023/12/20 09:31:58;;;;;;;27.00;6.97;;;;;;;-143.54;100.00;59916.91;5097540;28;20074;-82
2023/12/20 09:34:25;;;;;;;24.83;6.70;;;;;;;-143.54;100.00;59916.91;5104823;28;20023;-82
2023/12/20 09:36:51;;;;;;;24.92;6.35;;;;;;;-143.54;100.00;59916.91;5099085;28;20059;-82
2023/12/20 09:39:20;;;;;;;18.45;5.93;;;;;;;-143.54;100.00;59916.91;5103269;28;20055;-83
2023/12/20 09:41:59;;;;;;;25.60;6.25;;;;;;;-143.54;100.00;59916.91;5104195;28;20067;-84
2023/12/20 09:44:24;;;;;;;23.98;5.00;;;;;;;-143.54;100.00;59916.91;5089534;28;20036;-82
2023/12/20 09:46:50;;;;;;;21.48;5.75;;;;;;;-143.54;100.00;59916.91;5103540;28;20023;-83
2023/12/20 09:49:18;;;;;;;20.42;5.68;;;;;;;-143.54;100.00;59916.91;5095569;28;20036;-83
2023/12/20 09:51:46;;;;;;;21.95;5.65;;;;;;;-143.54;100.00;59916.91;5102223;28;20384;-82
2023/12/20 09:54:14;;;;;;;26.80;5.32;;;;;;;-143.54;100.00;59916.91;5096130;28;20139;-83
2023/12/20 09:56:39;;;;;;;21.70;6.05;;;;;;;-143.54;100.00;59916.91;5100357;28;20040;-83
2023/12/20 09:59:04;;;;;;;30.30;5.60;;;;;;;-143.54;100.00;59916.91;5106698;28;20511;-83
2023/12/20 10:01:31;;;;;;;22.00;5.85;;;;;;;-143.54;100.00;59916.91;5091362;28;20061;-82
2023/12/20 10:03:58;;;;;;;21.50;5.40;;;;;;;-143.54;100.00;59916.91;5106155;28;20374;-82
2023/12/20 10:06:23;;;;;;;21.95;4.90;;;;;;;-143.54;100.00;59916.91;5099231;28;20360;-82
2023/12/20 10:08:49;;;;;;;23.88;5.05;;;;;;;-143.54;100.00;59916.91;5103775;28;20458;-83
2023/12/20 10:11:14;;;;;;;23.27;5.15;;;;;;;-143.54;100.00;59916.91;5099510;28;20024;-83
2023/12/20 10:13:41;;;;;;;22.20;5.15;;;;;;;-143.54;100.00;59916.91;5102063;28;20062;-83
2023/12/20 10:16:07;;;;;;;20.10;5.03;;;;;;;-143.54;100.00;59916.91;5098911;28;20028;-82
2023/12/20 10:18:32;;;;;;;23.33;5.40;;;;;;;-143.54;100.00;59916.91;5095863;28;20028;-82
2023/12/20 10:20:58;;;;;;;18.25;4.60;;;;;;;-143.54;100.00;59916.91;5104033;28;20460;-83
2023/12/20 10:23:23;;;;;;;16.08;4.57;;;;;;;-143.54;100.00;59916.91;5098533;28;20024;-83
2023/12/20 10:26:01;;;;;;;22.30;5.15;;;;;;;-143.54;100.00;59916.91;5103787;28;20035;-83
2023/12/20 10:28:32;;;;;;;25.35;4.90;;;;;;;-143.54;100.00;59916.91;5099386;28;20096;-83
2023/12/20 10:30:57;;;;;;;24.98;5.30;;;;;;;-143.54;100.00;59916.91;5102787;28;20031;-83
2023/12/20 10:33:27;;;;;;;27.85;5.43;;;;;;;-143.54;100.00;59916.91;5099041;28;20028;-82
2023/12/20 10:35:53;;;;;;;21.67;5.63;;;;;;;-143.54;100.00;59916.91;5103054;28;20024;-82
2023/12/20 10:38:18;;;;;;;22.77;5.47;;;;;;;-143.54;100.00;59916.91;5098190;28;20024;-82
2023/12/20 10:40:46;;;;;;;18.88;5.00;;;;;;;-143.54;100.00;59916.91;5101355;28;20038;-82
2023/12/20 10:43:11;;;;;;;24.00;5.13;;;;;;;-143.54;100.00;59916.91;5096296;28;20024;-83
2023/12/20 10:45:37;;;;;;;20.50;4.57;;;;;;;-143.54;100.00;59916.91;5096996;28;20035;-83
2023/12/20 10:48:04;;;;;;;23.60;4.72;;;;;;;-143.54;100.00;59916.91;5098728;28;20081;-84
2023/12/20 10:50:30;;;;;;;25.27;5.75;;;;;;;-143.54;100.00;59916.91;5101994;28;20024;-84
2023/12/20 10:52:57;;;;;;;22.17;5.22;;;;;;;-143.54;100.00;59916.91;5097184;28;20430;-87
2023/12/20 10:55:26;;;;;;;17.88;4.75;;;;;;;-143.54;100.00;59916.91;5080479;28;20068;-81